Time;durP1;ratioP1;P1;durP2;ratioP2;P2;SDS_P1;SDS_P2;PMS_P1;PMS_P2;Temp;Humidity;BMP_temperature;BMP_pressure;BME280_temperature;BME280_humidity;BME280_pressure;Samples;Min_cycle;Max_cycle;Signal;HPM_P1;HPM_P2
2020/12/31 00:00:43;;;;;;;8.60;5.80;;;3.10;89.60;;;;;;2057341;28;20030;-71
2020/12/31 00:01:44;;;;;;;8.45;6.07;;;3.10;89.60;;;;;;2057300;28;20081;-69
2020/12/31 00:02:45;;;;;;;9.00;6.25;;;3.10;89.50;;;;;;2057813;28;20030;-70
2020/12/31 00:03:46;;;;;;;7.82;5.80;;;3.10;89.40;;;;;;2057242;28;20027;-72
2020/12/31 00:04:46;;;;;;;8.40;5.68;;;3.10;89.40;;;;;;2057401;28;20106;-72
2020/12/31 00:05:47;;;;;;;7.95;5.75;;;3.10;89.30;;;;;;2057438;28;20033;-73
2020/12/31 00:06:48;;;;;;;9.90;6.60;;;3.10;89.30;;;;;;2057028;28;20022;-72
2020/12/31 00:07:49;;;;;;;9.13;6.30;;;3.10;89.50;;;;;;2057208;28;20547;-71
2020/12/31 00:08:49;;;;;;;11.18;6.28;;;3.10;89.50;;;;;;2056901;28;20118;-71
2020/12/31 00:09:50;;;;;;;10.18;6.90;;;3.10;89.20;;;;;;2057768;28;20027;-71
2020/12/31 00:10:51;;;;;;;8.82;6.28;;;3.10;89.30;;;;;;2056906;28;20015;-72
2020/12/31 00:11:51;;;;;;;9.43;6.28;;;3.10;89.30;;;;;;2056342;28;20502;-71
2020/12/31 00:12:52;;;;;;;8.77;6.30;;;3.10;89.30;;;;;;2056921;28;20085;-72
2020/12/31 00:13:53;;;;;;;9.52;6.60;;;3.00;89.30;;;;;;2056572;28;20122;-71
2020/12/31 00:14:53;;;;;;;10.48;6.43;;;3.00;89.40;;;;;;2056701;28;20026;-71
2020/12/31 00:15:56;;;;;;;9.18;6.38;;;3.00;89.30;;;;;;2056166;28;20062;-73
2020/12/31 00:16:56;;;;;;;7.75;5.90;;;2.90;89.30;;;;;;2055845;28;20027;-72
2020/12/31 00:17:57;;;;;;;10.75;6.15;;;2.90;89.50;;;;;;2056643;28;20035;-73
2020/12/31 00:18:57;;;;;;;9.65;6.40;;;2.90;89.70;;;;;;2056530;28;20031;-73
2020/12/31 00:19:58;;;;;;;8.70;6.00;;;2.90;89.80;;;;;;2056529;28;20026;-72
2020/12/31 00:20:59;;;;;;;8.77;6.22;;;2.80;90.00;;;;;;2056596;28;20026;-72
2020/12/31 00:22:00;;;;;;;8.98;6.32;;;2.80;90.00;;;;;;2056152;28;20101;-72
2020/12/31 00:23:00;;;;;;;9.15;6.28;;;2.70;90.00;;;;;;2056707;28;20033;-71
2020/12/31 00:24:01;;;;;;;9.60;6.47;;;2.70;90.10;;;;;;2056023;28;20026;-72
2020/12/31 00:25:05;;;;;;;8.32;5.72;;;2.60;90.10;;;;;;2056776;28;20041;-70
2020/12/31 00:26:06;;;;;;;7.32;5.78;;;2.60;90.10;;;;;;2056647;28;20030;-71
2020/12/31 00:27:07;;;;;;;7.78;5.88;;;2.60;90.10;;;;;;2056569;28;20076;-72
2020/12/31 00:28:08;;;;;;;7.82;5.50;;;2.50;90.20;;;;;;2056549;28;20491;-73
2020/12/31 00:29:09;;;;;;;6.95;5.40;;;2.50;90.30;;;;;;2055872;28;20023;-71
2020/12/31 00:30:16;;;;;;;7.25;5.60;;;2.40;90.50;;;;;;2047775;29;20495;-74
2020/12/31 00:31:16;;;;;;;8.40;5.50;;;2.40;90.50;;;;;;2055395;28;20042;-73
2020/12/31 00:32:17;;;;;;;8.38;5.45;;;2.30;90.60;;;;;;2056296;28;20022;-71
2020/12/31 00:33:19;;;;;;;6.80;5.28;;;2.30;90.60;;;;;;2056367;28;20031;-74
2020/12/31 00:34:20;;;;;;;7.93;5.78;;;2.30;90.70;;;;;;2056492;28;20088;-71
2020/12/31 00:35:28;;;;;;;7.72;5.38;;;2.30;90.80;;;;;;2056788;28;20061;-74
2020/12/31 00:36:28;;;;;;;7.70;5.50;;;2.30;90.90;;;;;;2056076;28;20042;-75
2020/12/31 00:37:36;;;;;;;7.55;5.63;;;2.30;90.90;;;;;;2056347;28;20110;-72
2020/12/31 00:38:37;;;;;;;8.02;5.38;;;2.30;90.90;;;;;;2057097;28;20098;-72
2020/12/31 00:39:37;;;;;;;7.57;5.45;;;2.30;90.90;;;;;;2057531;28;20026;-71
2020/12/31 00:40:38;;;;;;;7.68;5.90;;;2.30;91.00;;;;;;2058561;28;20023;-72
2020/12/31 00:41:39;;;;;;;7.80;5.55;;;2.20;91.00;;;;;;2059480;28;20029;-74
2020/12/31 00:42:39;;;;;;;7.18;5.65;;;2.20;91.00;;;;;;2060304;28;20022;-72
2020/12/31 00:43:40;;;;;;;7.30;5.75;;;2.20;91.10;;;;;;2060404;28;20062;-73
2020/12/31 00:44:41;;;;;;;8.95;6.30;;;2.20;91.20;;;;;;2059787;28;20027;-72
2020/12/31 00:45:41;;;;;;;8.50;6.05;;;2.20;91.20;;;;;;2058998;28;20031;-71
2020/12/31 00:46:42;;;;;;;8.60;5.95;;;2.10;91.20;;;;;;2056853;28;20027;-71
2020/12/31 00:47:43;;;;;;;9.57;6.35;;;2.10;91.30;;;;;;2057192;28;20034;-72
2020/12/31 00:48:43;;;;;;;8.52;6.00;;;2.10;91.30;;;;;;2056572;28;20074;-71
2020/12/31 00:49:44;;;;;;;9.15;6.40;;;2.10;91.40;;;;;;2056449;28;20634;-72
2020/12/31 00:50:45;;;;;;;8.75;6.22;;;2.10;91.40;;;;;;2057071;28;20026;-73
2020/12/31 00:51:46;;;;;;;8.77;6.18;;;2.10;91.40;;;;;;2055747;28;20056;-74
2020/12/31 00:52:47;;;;;;;9.70;6.50;;;2.10;91.50;;;;;;2047549;28;20506;-74
2020/12/31 00:53:48;;;;;;;10.27;6.85;;;2.00;91.50;;;;;;2047727;28;20494;-73
2020/12/31 00:54:52;;;;;;;9.85;6.70;;;2.10;91.60;;;;;;2056048;28;20019;-71
2020/12/31 00:55:53;;;;;;;10.15;6.47;;;2.00;91.60;;;;;;2056175;28;20167;-72
2020/12/31 00:56:55;;;;;;;9.18;6.40;;;2.00;91.60;;;;;;2063496;28;20574;-75
2020/12/31 00:57:55;;;;;;;10.13;6.47;;;2.00;91.60;;;;;;2048268;29;20039;-71
2020/12/31 00:58:57;;;;;;;10.73;7.10;;;2.00;91.60;;;;;;2048532;28;20018;-73
2020/12/31 00:59:59;;;;;;;9.68;6.85;;;2.00;91.60;;;;;;2048103;29;20043;-72
2020/12/31 01:01:00;;;;;;;9.75;6.90;;;1.90;91.70;;;;;;2040256;28;20035;-71
2020/12/31 01:02:01;;;;;;;11.32;7.20;;;1.90;91.70;;;;;;2047722;29;20128;-71
2020/12/31 01:03:05;;;;;;;11.75;7.25;;;1.90;91.80;;;;;;2056226;28;20041;-72
2020/12/31 01:04:06;;;;;;;12.10;7.28;;;1.90;91.80;;;;;;2055977;28;20578;-72
2020/12/31 01:05:11;;;;;;;11.57;7.55;;;1.90;91.90;;;;;;2055941;28;20086;-72
2020/12/31 01:06:12;;;;;;;14.07;8.65;;;1.90;91.90;;;;;;2056371;28;20103;-73
2020/12/31 01:07:18;;;;;;;19.10;10.68;;;1.80;91.90;;;;;;2056175;28;20191;-72
2020/12/31 01:08:19;;;;;;;19.65;11.02;;;1.80;91.90;;;;;;2056290;28;20031;-71
2020/12/31 01:09:19;;;;;;;19.38;11.02;;;1.80;92.00;;;;;;2056811;28;20491;-73
2020/12/31 01:10:20;;;;;;;19.23;11.15;;;1.80;92.00;;;;;;2056800;28;20050;-72
2020/12/31 01:11:21;;;;;;;19.40;11.15;;;1.80;92.00;;;;;;2056075;28;20062;-73
2020/12/31 01:12:22;;;;;;;19.30;11.23;;;1.80;92.10;;;;;;2055926;28;20082;-72
2020/12/31 01:13:22;;;;;;;17.90;11.02;;;1.80;92.10;;;;;;2055896;28;20047;-74
2020/12/31 01:14:23;;;;;;;20.98;11.35;;;1.80;92.10;;;;;;2055434;28;20043;-74
2020/12/31 01:15:24;;;;;;;20.58;11.45;;;1.80;92.10;;;;;;2056230;28;20027;-73
2020/12/31 01:16:24;;;;;;;22.58;12.77;;;1.80;92.10;;;;;;2056989;28;20030;-74
2020/12/31 01:17:26;;;;;;;20.30;12.43;;;1.80;92.00;;;;;;2057642;28;20498;-71
2020/12/31 01:18:27;;;;;;;17.48;11.00;;;1.90;92.00;;;;;;2057682;28;20045;-73
2020/12/31 01:19:28;;;;;;;18.15;11.27;;;1.80;91.90;;;;;;2057194;28;20023;-71
2020/12/31 01:20:29;;;;;;;17.23;11.00;;;1.80;92.00;;;;;;2058385;28;20062;-72
2020/12/31 01:21:30;;;;;;;18.83;11.38;;;1.80;91.90;;;;;;2057904;28;20074;-73
2020/12/31 01:22:30;;;;;;;20.58;12.07;;;1.70;91.90;;;;;;2057886;28;20437;-71
2020/12/31 01:23:31;;;;;;;18.83;11.70;;;1.70;92.00;;;;;;2057654;28;20043;-72
2020/12/31 01:24:32;;;;;;;18.42;11.52;;;1.70;92.00;;;;;;2049045;28;20024;-73
2020/12/31 01:25:36;;;;;;;18.67;11.82;;;1.70;92.10;;;;;;2057304;28;20600;-73
2020/12/31 01:26:37;;;;;;;19.65;12.02;;;1.70;92.20;;;;;;2057506;28;20030;-74
2020/12/31 01:27:38;;;;;;;18.90;11.07;;;1.70;92.30;;;;;;2057875;28;20607;-72
2020/12/31 01:28:39;;;;;;;19.60;11.82;;;1.70;92.40;;;;;;2058388;28;20070;-73
2020/12/31 01:29:40;;;;;;;16.60;10.93;;;1.60;92.30;;;;;;2057308;28;20161;-73
2020/12/31 01:30:41;;;;;;;17.45;11.05;;;1.70;92.30;;;;;;2056953;28;20038;-73
2020/12/31 01:31:47;;;;;;;16.83;10.93;;;1.60;92.30;;;;;;2057360;28;20027;-73
2020/12/31 01:32:48;;;;;;;16.30;10.20;;;1.60;92.20;;;;;;2057844;28;20505;-73
2020/12/31 01:33:48;;;;;;;16.10;10.40;;;1.60;92.30;;;;;;2057696;28;20062;-72
2020/12/31 01:34:49;;;;;;;17.58;10.40;;;1.60;92.40;;;;;;2057669;28;20022;-73
2020/12/31 01:35:50;;;;;;;14.90;9.77;;;1.60;92.40;;;;;;2057059;28;20031;-73
2020/12/31 01:36:54;;;;;;;16.52;10.55;;;1.50;92.50;;;;;;2056873;28;20118;-72
2020/12/31 01:37:55;;;;;;;18.02;11.50;;;1.50;92.60;;;;;;2057252;28;20744;-72
2020/12/31 01:38:55;;;;;;;18.98;11.05;;;1.50;92.70;;;;;;2057721;28;20023;-73
2020/12/31 01:39:56;;;;;;;16.38;10.10;;;1.60;92.80;;;;;;2057640;28;20054;-71
2020/12/31 01:40:57;;;;;;;16.17;10.02;;;1.60;92.80;;;;;;2057637;28;20027;-73
2020/12/31 01:42:04;;;;;;;16.77;10.07;;;1.60;93.10;;;;;;2057098;28;20023;-72
2020/12/31 01:43:05;;;;;;;17.05;10.00;;;1.60;93.10;;;;;;2057799;28;20026;-72
2020/12/31 01:44:08;;;;;;;14.68;10.05;;;1.60;92.90;;;;;;2057647;28;20418;-73
2020/12/31 01:45:09;;;;;;;15.05;9.80;;;1.60;92.80;;;;;;2057694;28;20027;-72
2020/12/31 01:46:10;;;;;;;13.70;9.27;;;1.60;93.10;;;;;;2048682;28;20049;-73
2020/12/31 01:47:13;;;;;;;13.23;9.00;;;1.60;92.80;;;;;;2049273;28;20038;-73
2020/12/31 01:48:13;;;;;;;14.15;9.63;;;1.60;92.80;;;;;;2057395;28;20039;-74
2020/12/31 01:49:19;;;;;;;14.02;9.50;;;1.60;92.90;;;;;;2057588;28;20038;-69
2020/12/31 01:50:20;;;;;;;13.07;8.85;;;1.60;92.90;;;;;;2058458;28;20026;-71
2020/12/31 01:51:21;;;;;;;13.15;8.80;;;1.60;92.80;;;;;;2057270;28;20122;-71
2020/12/31 01:52:22;;;;;;;13.43;8.77;;;1.60;92.80;;;;;;2057591;28;20092;-71
2020/12/31 01:53:23;;;;;;;12.05;8.30;;;1.60;92.80;;;;;;2057564;28;20081;-72
2020/12/31 01:54:25;;;;;;;14.70;9.05;;;1.60;92.80;;;;;;2057488;28;20041;-71
2020/12/31 01:55:26;;;;;;;13.65;8.80;;;1.60;93.00;;;;;;2058478;28;20077;-71
2020/12/31 01:56:32;;;;;;;12.60;8.25;;;1.60;93.00;;;;;;2058011;28;20030;-70
2020/12/31 01:57:34;;;;;;;11.40;8.10;;;1.60;92.90;;;;;;2058399;28;20490;-71
2020/12/31 01:58:35;;;;;;;12.82;8.25;;;1.60;93.00;;;;;;2057067;28;20388;-72
2020/12/31 01:59:36;;;;;;;10.65;7.75;;;1.60;93.00;;;;;;2057228;28;20069;-71
2020/12/31 02:00:36;;;;;;;11.13;7.60;;;1.60;92.90;;;;;;2057177;28;20814;-71
2020/12/31 02:01:37;;;;;;;12.48;7.60;;;1.60;92.90;;;;;;2056560;28;20030;-73
2020/12/31 02:02:38;;;;;;;11.65;7.45;;;1.60;92.90;;;;;;2058381;28;20031;-75
2020/12/31 02:03:38;;;;;;;10.98;7.60;;;1.60;92.90;;;;;;2057507;28;20027;-71
2020/12/31 02:04:39;;;;;;;11.45;8.05;;;1.60;92.90;;;;;;2057652;28;20046;-72
2020/12/31 02:05:40;;;;;;;11.07;8.00;;;1.70;92.80;;;;;;2057931;28;20500;-71
2020/12/31 02:06:41;;;;;;;11.55;7.40;;;1.70;92.80;;;;;;2057422;28;20027;-70
2020/12/31 02:07:46;;;;;;;10.45;7.60;;;1.70;92.80;;;;;;2058111;28;20109;-72
2020/12/31 02:08:48;;;;;;;9.98;7.35;;;1.70;92.80;;;;;;2057264;28;20039;-71
2020/12/31 02:09:49;;;;;;;11.90;7.85;;;1.70;92.70;;;;;;2056947;28;20027;-72
2020/12/31 02:10:49;;;;;;;10.82;7.57;;;1.70;92.70;;;;;;2056924;28;20031;-72
2020/12/31 02:11:50;;;;;;;10.00;7.40;;;1.70;92.70;;;;;;2057814;28;20023;-71
2020/12/31 02:12:52;;;;;;;11.13;7.30;;;1.70;92.70;;;;;;2057958;28;20031;-71
2020/12/31 02:13:54;;;;;;;10.43;7.20;;;1.70;92.60;;;;;;2057136;28;20031;-71
2020/12/31 02:14:55;;;;;;;9.82;7.03;;;1.80;92.60;;;;;;2057389;28;20057;-71
2020/12/31 02:15:56;;;;;;;10.07;7.40;;;1.80;92.60;;;;;;2057937;28;20115;-71
2020/12/31 02:16:58;;;;;;;9.80;7.30;;;1.80;92.50;;;;;;2057940;28;20407;-71
2020/12/31 02:17:59;;;;;;;9.75;7.15;;;1.80;92.50;;;;;;2057970;28;20061;-71
2020/12/31 02:19:02;;;;;;;9.88;7.05;;;1.80;92.50;;;;;;2058221;28;20038;-72
2020/12/31 02:20:03;;;;;;;10.30;6.95;;;1.70;92.40;;;;;;2058371;28;20140;-72
2020/12/31 02:21:04;;;;;;;9.75;7.45;;;1.70;92.40;;;;;;2059037;28;20545;-74
2020/12/31 02:22:05;;;;;;;10.25;7.03;;;1.70;92.40;;;;;;2059542;28;20023;-74
2020/12/31 02:23:06;;;;;;;9.57;7.00;;;1.70;92.30;;;;;;2059789;28;20068;-73
2020/12/31 02:24:07;;;;;;;10.13;7.15;;;1.70;92.40;;;;;;2059909;28;20019;-74
2020/12/31 02:25:08;;;;;;;9.77;7.32;;;1.60;92.40;;;;;;2051615;29;20411;-74
2020/12/31 02:28:24;;;;;;;10.50;7.45;;;1.60;92.50;;;;;;2057455;28;20030;-74
2020/12/31 02:29:25;;;;;;;10.20;7.50;;;1.50;92.50;;;;;;2057051;28;20078;-72
2020/12/31 02:30:26;;;;;;;11.50;7.32;;;1.50;92.60;;;;;;2057280;28;20034;-71
2020/12/31 02:31:28;;;;;;;10.70;7.72;;;1.50;92.70;;;;;;2058059;28;20113;-71
2020/12/31 02:32:28;;;;;;;10.07;7.20;;;1.50;92.70;;;;;;2058032;28;20494;-72
2020/12/31 02:33:29;;;;;;;11.38;7.40;;;1.50;92.70;;;;;;2057831;28;20023;-70
2020/12/31 02:34:30;;;;;;;10.60;7.93;;;1.50;92.70;;;;;;2058055;28;20609;-71
2020/12/31 02:35:31;;;;;;;10.50;7.70;;;1.40;92.70;;;;;;2057666;28;20471;-72
2020/12/31 02:36:35;;;;;;;9.50;7.07;;;1.40;92.80;;;;;;2056718;28;20122;-72
2020/12/31 02:37:36;;;;;;;10.70;7.63;;;1.40;92.80;;;;;;2048867;28;20037;-72
2020/12/31 02:38:36;;;;;;;10.60;7.57;;;1.40;93.00;;;;;;2048978;28;20070;-72
2020/12/31 02:39:40;;;;;;;9.70;7.38;;;1.30;93.00;;;;;;2057871;28;20462;-71
2020/12/31 02:40:41;;;;;;;10.45;7.63;;;1.30;93.10;;;;;;2057488;28;20102;-70
2020/12/31 02:41:42;;;;;;;10.75;7.80;;;1.30;93.10;;;;;;2056618;28;20451;-70
2020/12/31 02:42:42;;;;;;;11.60;8.35;;;1.30;93.20;;;;;;2056939;28;20106;-71
2020/12/31 02:43:44;;;;;;;10.43;7.68;;;1.20;93.20;;;;;;2057922;28;20117;-72
2020/12/31 02:44:44;;;;;;;10.90;7.65;;;1.20;93.20;;;;;;2057349;28;20042;-72
2020/12/31 02:45:45;;;;;;;10.38;7.80;;;1.20;93.30;;;;;;2057347;28;20034;-71
2020/12/31 02:46:46;;;;;;;11.57;8.07;;;1.20;93.40;;;;;;2057286;28;20018;-72
2020/12/31 02:47:46;;;;;;;10.35;7.88;;;1.20;93.50;;;;;;2057528;28;20076;-73
2020/12/31 02:48:49;;;;;;;11.45;7.53;;;1.10;93.90;;;;;;2057739;28;20027;-71
2020/12/31 02:49:50;;;;;;;10.98;7.82;;;1.10;93.60;;;;;;2057131;28;20033;-71
2020/12/31 02:50:51;;;;;;;11.32;7.88;;;1.10;93.70;;;;;;2057139;28;20070;-72
2020/12/31 02:51:51;;;;;;;12.10;8.23;;;1.10;93.70;;;;;;2057735;28;20093;-71
2020/12/31 02:52:52;;;;;;;10.52;7.72;;;1.10;93.80;;;;;;2056692;28;20023;-71
2020/12/31 02:53:53;;;;;;;11.70;8.27;;;1.00;93.80;;;;;;2056963;28;20474;-72
2020/12/31 02:54:54;;;;;;;11.98;8.07;;;1.00;93.80;;;;;;2056564;28;20632;-72
2020/12/31 02:55:54;;;;;;;13.07;8.77;;;1.00;93.90;;;;;;2056654;28;20062;-71
2020/12/31 02:56:56;;;;;;;12.77;8.55;;;0.90;94.00;;;;;;2055779;28;20023;-73
2020/12/31 02:57:56;;;;;;;13.85;9.50;;;1.00;94.10;;;;;;2057154;28;20034;-73
2020/12/31 02:58:57;;;;;;;13.40;8.90;;;1.00;94.20;;;;;;2056997;28;20023;-72
2020/12/31 02:59:58;;;;;;;13.63;9.13;;;0.90;94.20;;;;;;2057105;28;20026;-72
2020/12/31 03:00:58;;;;;;;12.48;8.32;;;1.00;94.30;;;;;;2056998;28;20058;-72
2020/12/31 03:01:59;;;;;;;13.02;9.10;;;0.90;94.30;;;;;;2057039;28;20054;-72
2020/12/31 03:03:00;;;;;;;13.15;8.63;;;0.90;94.40;;;;;;2057119;28;20062;-72
2020/12/31 03:04:00;;;;;;;13.32;8.98;;;0.90;94.40;;;;;;2057072;28;20027;-72
2020/12/31 03:05:01;;;;;;;12.45;8.80;;;0.90;94.50;;;;;;2056706;28;20550;-71
2020/12/31 03:06:03;;;;;;;12.85;8.80;;;0.90;94.60;;;;;;2056976;28;20070;-71
2020/12/31 03:07:03;;;;;;;12.65;8.50;;;0.90;94.60;;;;;;2057964;28;20018;-71
2020/12/31 03:08:04;;;;;;;11.48;8.27;;;0.90;94.70;;;;;;2057281;28;20105;-71
2020/12/31 03:09:05;;;;;;;11.02;8.30;;;0.90;94.80;;;;;;2049338;29;20109;-74
2020/12/31 03:10:05;;;;;;;13.80;8.63;;;0.90;94.90;;;;;;2057265;28;20033;-71
2020/12/31 03:11:15;;;;;;;11.38;8.50;;;0.90;95.00;;;;;;2057408;28;20109;-73
2020/12/31 03:12:16;;;;;;;12.20;8.75;;;0.80;95.00;;;;;;2057225;28;20041;-73
2020/12/31 03:13:17;;;;;;;10.65;8.15;;;0.80;95.00;;;;;;2056375;28;20113;-72
2020/12/31 03:14:18;;;;;;;11.30;8.10;;;0.80;95.10;;;;;;2048444;28;20077;-72
2020/12/31 03:15:21;;;;;;;12.32;8.52;;;0.80;95.20;;;;;;2048267;28;20105;-72
2020/12/31 03:16:21;;;;;;;12.15;8.93;;;0.80;95.40;;;;;;2055647;28;20050;-72
2020/12/31 03:17:22;;;;;;;12.35;8.77;;;0.80;95.50;;;;;;2057775;28;20093;-71
2020/12/31 03:18:23;;;;;;;11.20;8.57;;;0.90;95.60;;;;;;2058718;28;20031;-72
2020/12/31 03:19:24;;;;;;;13.63;8.50;;;0.90;95.60;;;;;;2061059;28;20092;-76
2020/12/31 03:20:25;;;;;;;11.88;8.32;;;0.90;95.80;;;;;;2051449;29;20067;-72
2020/12/31 03:21:28;;;;;;;11.95;8.57;;;1.00;95.80;;;;;;2060159;28;20066;-73
2020/12/31 03:22:29;;;;;;;11.68;8.52;;;1.00;95.80;;;;;;2059630;28;20019;-69
2020/12/31 03:23:30;;;;;;;12.10;8.57;;;1.00;95.70;;;;;;2058447;28;20383;-72
2020/12/31 03:24:30;;;;;;;16.23;10.30;;;1.00;95.70;;;;;;2057967;28;20378;-70
2020/12/31 03:25:31;;;;;;;17.02;11.27;;;1.10;95.60;;;;;;2058313;28;20048;-71
2020/12/31 03:26:34;;;;;;;17.52;10.95;;;1.10;95.50;;;;;;2056888;28;20474;-71
2020/12/31 03:27:35;;;;;;;17.83;11.45;;;1.10;95.30;;;;;;2057845;28;20078;-71
2020/12/31 03:28:35;;;;;;;17.50;11.32;;;1.10;95.20;;;;;;2057474;28;20173;-74
2020/12/31 03:29:36;;;;;;;16.50;10.90;;;1.10;95.10;;;;;;2057281;28;20019;-71
2020/12/31 03:30:37;;;;;;;17.35;11.40;;;1.10;94.90;;;;;;2057585;28;20033;-71
2020/12/31 03:31:38;;;;;;;17.48;11.73;;;1.10;94.90;;;;;;2057565;28;20041;-71
2020/12/31 03:32:39;;;;;;;18.38;11.90;;;1.10;94.80;;;;;;2057164;28;20121;-71
2020/12/31 03:33:39;;;;;;;18.73;12.05;;;1.10;94.70;;;;;;2056489;28;20138;-73
2020/12/31 03:34:40;;;;;;;17.90;12.20;;;1.10;94.60;;;;;;2057515;28;20033;-71
2020/12/31 03:35:45;;;;;;;17.65;11.05;;;1.10;94.60;;;;;;2057705;28;20031;-70
2020/12/31 03:36:46;;;;;;;18.70;11.95;;;1.10;94.50;;;;;;2056485;28;20481;-71
2020/12/31 03:37:47;;;;;;;17.45;11.32;;;1.10;94.50;;;;;;2056872;28;20042;-70
2020/12/31 03:38:47;;;;;;;16.35;11.45;;;1.00;94.40;;;;;;2056896;28;20037;-69
2020/12/31 03:39:48;;;;;;;15.38;11.27;;;1.00;94.40;;;;;;2057619;28;20026;-71
2020/12/31 03:40:49;;;;;;;16.67;11.27;;;1.10;94.40;;;;;;2057643;28;20027;-70
2020/12/31 03:41:50;;;;;;;16.13;11.02;;;1.00;94.40;;;;;;2057667;28;20019;-72
2020/12/31 03:42:51;;;;;;;14.65;10.60;;;1.00;94.40;;;;;;2057475;28;20025;-71
2020/12/31 03:43:52;;;;;;;16.60;10.45;;;1.00;94.40;;;;;;2057498;28;20023;-70
2020/12/31 03:44:52;;;;;;;15.65;10.38;;;1.00;94.50;;;;;;2057415;28;20019;-71
2020/12/31 03:45:53;;;;;;;16.85;10.32;;;0.90;94.40;;;;;;2057202;28;20059;-70
2020/12/31 03:46:54;;;;;;;15.38;10.30;;;1.00;94.50;;;;;;2056537;28;20077;-70
2020/12/31 03:47:54;;;;;;;14.55;10.27;;;1.00;94.50;;;;;;2056785;28;20035;-71
2020/12/31 03:48:55;;;;;;;15.13;10.65;;;1.00;94.50;;;;;;2056743;28;20499;-70
2020/12/31 03:49:56;;;;;;;17.40;10.88;;;1.00;94.40;;;;;;2057334;28;20718;-70
2020/12/31 03:50:56;;;;;;;15.55;11.02;;;1.00;94.40;;;;;;2057475;28;20085;-71
2020/12/31 03:51:57;;;;;;;17.10;11.05;;;1.00;94.40;;;;;;2057458;28;20053;-70
2020/12/31 03:52:58;;;;;;;16.45;10.90;;;1.00;94.40;;;;;;2057401;28;20031;-71
2020/12/31 03:53:59;;;;;;;18.90;11.35;;;1.00;94.40;;;;;;2057525;28;20051;-72
2020/12/31 03:54:59;;;;;;;17.27;11.48;;;1.00;94.40;;;;;;2056721;28;20061;-73
2020/12/31 03:56:00;;;;;;;15.98;11.05;;;0.90;94.50;;;;;;2056408;28;20077;-74
2020/12/31 03:57:01;;;;;;;16.75;11.27;;;1.00;94.50;;;;;;2056539;28;20545;-71
2020/12/31 03:58:02;;;;;;;17.05;11.25;;;0.90;94.40;;;;;;2056894;28;20621;-70
2020/12/31 03:59:05;;;;;;;16.98;10.95;;;0.90;94.40;;;;;;2056903;28;20118;-71
2020/12/31 04:00:06;;;;;;;15.63;10.75;;;0.90;94.30;;;;;;2056701;28;20088;-70
2020/12/31 04:01:07;;;;;;;16.33;10.40;;;0.90;94.30;;;;;;2056699;28;20022;-70
2020/12/31 04:02:08;;;;;;;14.07;10.05;;;0.90;94.20;;;;;;2057452;28;20498;-70
2020/12/31 04:03:08;;;;;;;18.33;11.02;;;0.80;94.30;;;;;;2056666;28;20437;-72
2020/12/31 04:04:09;;;;;;;13.80;10.15;;;0.80;94.30;;;;;;2048754;29;20062;-71
2020/12/31 04:05:10;;;;;;;17.08;10.27;;;0.80;94.40;;;;;;2048603;29;20086;-71
2020/12/31 04:06:13;;;;;;;15.45;10.55;;;0.80;94.40;;;;;;2056639;28;20494;-70
2020/12/31 04:07:14;;;;;;;14.15;10.05;;;0.70;94.40;;;;;;2057570;28;20418;-70
2020/12/31 04:08:14;;;;;;;15.07;10.10;;;0.70;94.50;;;;;;2057223;28;20035;-72
2020/12/31 04:09:15;;;;;;;15.70;10.65;;;0.70;94.50;;;;;;2057149;28;20026;-71
2020/12/31 04:10:16;;;;;;;14.25;10.00;;;0.70;94.60;;;;;;2057442;28;20039;-70
2020/12/31 04:11:17;;;;;;;16.75;10.82;;;0.60;94.60;;;;;;2058453;28;20031;-74
2020/12/31 04:12:18;;;;;;;16.70;10.60;;;0.60;94.70;;;;;;2059297;28;20367;-71
2020/12/31 04:13:18;;;;;;;17.48;11.63;;;0.60;94.80;;;;;;2058818;28;20033;-70
2020/12/31 04:14:19;;;;;;;17.65;11.45;;;0.60;94.90;;;;;;2057542;28;20398;-70
2020/12/31 04:15:20;;;;;;;17.50;11.10;;;0.60;94.90;;;;;;2057149;28;20031;-70
2020/12/31 04:16:20;;;;;;;16.13;11.30;;;0.60;94.90;;;;;;2055878;28;20039;-70
2020/12/31 04:17:21;;;;;;;17.48;10.85;;;0.60;94.90;;;;;;2056625;28;20489;-71
2020/12/31 04:18:22;;;;;;;17.40;11.10;;;0.60;95.00;;;;;;2056918;28;20039;-71
2020/12/31 04:19:22;;;;;;;16.90;11.50;;;0.60;95.00;;;;;;2057227;28;20031;-70
2020/12/31 04:20:23;;;;;;;18.65;12.10;;;0.60;95.10;;;;;;2057067;28;20027;-73
2020/12/31 04:21:24;;;;;;;19.88;12.45;;;0.60;95.20;;;;;;2057878;28;20030;-72
2020/12/31 04:22:24;;;;;;;18.08;12.20;;;0.60;95.20;;;;;;2058067;28;20033;-71
2020/12/31 04:23:25;;;;;;;17.83;11.65;;;0.60;95.20;;;;;;2057012;28;20019;-73
2020/12/31 04:24:26;;;;;;;18.00;11.80;;;0.60;95.20;;;;;;2056648;28;20592;-70
2020/12/31 04:25:26;;;;;;;19.45;12.02;;;0.60;95.30;;;;;;2056394;28;20031;-70
2020/12/31 04:26:27;;;;;;;17.83;11.77;;;0.60;95.30;;;;;;2056009;28;20058;-73
2020/12/31 04:27:28;;;;;;;16.27;12.00;;;0.60;95.30;;;;;;2057240;28;20035;-71
2020/12/31 04:28:28;;;;;;;19.08;12.20;;;0.60;95.30;;;;;;2057381;28;20026;-70
2020/12/31 04:29:29;;;;;;;17.73;12.48;;;0.70;95.30;;;;;;2057284;28;20030;-70
2020/12/31 04:30:30;;;;;;;18.17;12.25;;;0.70;95.30;;;;;;2057204;28;20081;-71
2020/12/31 04:31:30;;;;;;;18.85;12.65;;;0.70;95.30;;;;;;2056909;28;20386;-70
2020/12/31 04:32:31;;;;;;;18.85;12.13;;;0.70;95.30;;;;;;2057024;28;20033;-70
2020/12/31 04:33:32;;;;;;;17.92;12.10;;;0.70;95.20;;;;;;2056681;28;20069;-70
2020/12/31 04:34:32;;;;;;;18.13;12.20;;;0.70;95.50;;;;;;2056311;28;20038;-72
2020/12/31 04:35:33;;;;;;;18.75;12.32;;;0.70;95.10;;;;;;2055683;28;20411;-72
2020/12/31 04:36:34;;;;;;;17.85;12.57;;;0.70;95.10;;;;;;2055263;28;20118;-72
2020/12/31 04:37:34;;;;;;;19.05;13.07;;;0.70;95.20;;;;;;2056705;28;20023;-72
2020/12/31 04:38:35;;;;;;;22.08;13.40;;;0.80;95.30;;;;;;2056747;28;20022;-72
2020/12/31 04:39:36;;;;;;;19.50;12.98;;;0.80;95.30;;;;;;2056737;28;20031;-71
2020/12/31 04:40:44;;;;;;;18.77;12.82;;;0.80;95.20;;;;;;2056822;28;20161;-72
2020/12/31 04:41:46;;;;;;;21.00;13.23;;;0.80;95.20;;;;;;2056794;28;20027;-72
2020/12/31 04:42:51;;;;;;;21.95;13.50;;;0.90;95.20;;;;;;2056930;28;20078;-71
2020/12/31 04:43:52;;;;;;;19.55;13.35;;;0.90;95.10;;;;;;2056019;28;20080;-71
2020/12/31 04:44:53;;;;;;;20.13;13.05;;;0.90;95.00;;;;;;2056249;28;20054;-72
2020/12/31 04:45:55;;;;;;;18.20;12.95;;;0.90;94.90;;;;;;2056775;28;20069;-71
2020/12/31 04:46:57;;;;;;;19.58;13.00;;;0.90;94.80;;;;;;2055857;28;20588;-71
2020/12/31 04:48:17;;;;;;;24.02;14.48;;;0.90;94.80;;;;;;2056947;28;20030;-72
2020/12/31 04:49:28;;;;;;;20.38;13.75;;;0.90;94.90;;;;;;2056069;28;20039;-72
2020/12/31 04:50:34;;;;;;;19.75;13.43;;;0.90;95.00;;;;;;2049442;28;20091;-72
2020/12/31 04:51:36;;;;;;;21.83;14.27;;;0.90;94.80;;;;;;2056269;28;20505;-71
2020/12/31 04:52:37;;;;;;;22.88;13.82;;;0.90;94.70;;;;;;2056922;28;20039;-72
2020/12/31 04:53:38;;;;;;;24.02;14.68;;;0.80;94.60;;;;;;2056604;28;20646;-72
2020/12/31 04:54:40;;;;;;;33.65;18.67;;;0.80;94.60;;;;;;2055925;28;20023;-72
2020/12/31 04:55:45;;;;;;;33.60;18.52;;;0.70;94.90;;;;;;2048184;28;20043;-72
2020/12/31 04:56:46;;;;;;;31.25;17.55;;;0.70;94.90;;;;;;2055223;28;20081;-72
2020/12/31 04:57:47;;;;;;;33.33;18.48;;;0.70;94.80;;;;;;2056880;28;20018;-72
2020/12/31 04:58:48;;;;;;;37.20;20.00;;;0.70;94.80;;;;;;2057118;28;20077;-72
2020/12/31 04:59:48;;;;;;;38.85;20.20;;;0.60;94.80;;;;;;2065871;28;20113;-72
2020/12/31 05:00:49;;;;;;;40.88;21.33;;;0.60;94.80;;;;;;2065725;28;20014;-72
2020/12/31 05:01:50;;;;;;;39.80;20.65;;;0.60;94.90;;;;;;2065098;28;20026;-72
2020/12/31 05:02:53;;;;;;;38.58;19.98;;;0.60;95.10;;;;;;2064308;28;20085;-72
2020/12/31 05:03:54;;;;;;;33.08;19.42;;;0.60;95.30;;;;;;2057204;28;20117;-72
2020/12/31 05:04:55;;;;;;;34.03;18.70;;;0.60;95.10;;;;;;2056971;28;20074;-72
2020/12/31 05:05:59;;;;;;;33.72;18.35;;;0.60;95.10;;;;;;2056864;28;20030;-71
2020/12/31 05:06:59;;;;;;;34.85;18.58;;;0.60;95.00;;;;;;2056409;28;20026;-72
2020/12/31 05:08:01;;;;;;;39.45;20.67;;;0.50;95.00;;;;;;2056835;28;20097;-72
2020/12/31 05:09:15;;;;;;;44.05;23.67;;;0.60;95.30;;;;;;2057180;28;20497;-72
2020/12/31 05:10:16;;;;;;;46.88;24.00;;;0.60;95.50;;;;;;2057053;28;20471;-72
2020/12/31 05:11:17;;;;;;;42.95;23.25;;;0.50;95.20;;;;;;2056981;28;20045;-71
2020/12/31 05:12:28;;;;;;;41.92;22.75;;;0.60;95.10;;;;;;2057024;28;20490;-71
2020/12/31 05:13:29;;;;;;;;;;;0.50;95.10;;;;;;2057379;28;20038;-72
2020/12/31 05:14:31;;;;;;;47.72;23.65;;;0.50;95.10;;;;;;2064188;28;19956;-72
2020/12/31 05:15:40;;;;;;;47.58;23.60;;;0.50;95.10;;;;;;2055868;28;20026;-72
2020/12/31 05:16:40;;;;;;;47.63;24.73;;;0.40;95.10;;;;;;2055695;28;20078;-72
2020/12/31 05:17:41;;;;;;;49.08;25.00;;;0.40;95.00;;;;;;2056398;28;20019;-72
2020/12/31 05:18:42;;;;;;;45.45;24.30;;;0.40;95.00;;;;;;2056423;28;20418;-72
2020/12/31 05:19:43;;;;;;;44.47;23.58;;;0.30;95.00;;;;;;2056216;28;20170;-72
2020/12/31 05:20:46;;;;;;;41.10;22.42;;;0.30;95.10;;;;;;2056389;28;20081;-71